Time;durP1;ratioP1;P1;durP2;ratioP2;P2;SDS_P1;SDS_P2;PMS_P1;PMS_P2;Temp;Humidity;BMP_temperature;BMP_pressure;BME280_temperature;BME280_humidity;BME280_pressure;Samples;Min_cycle;Max_cycle;Signal;HPM_P1;HPM_P2
2021/03/08 00:00:00;;;;;;;16.60;14.77;;;1.60;95.90;;;;;;4932948;29;20231;-82
2021/03/08 00:02:27;;;;;;;20.17;14.60;;;1.60;95.90;;;;;;4933239;29;20675;-82
2021/03/08 00:04:53;;;;;;;18.63;15.02;;;1.60;96.00;;;;;;4928067;29;20565;-81
2021/03/08 00:07:19;;;;;;;15.60;13.82;;;1.60;96.10;;;;;;4931505;29;20207;-82
2021/03/08 00:09:46;;;;;;;17.15;13.82;;;1.60;96.10;;;;;;4927792;29;20205;-81
2021/03/08 00:12:12;;;;;;;18.30;13.45;;;1.50;96.10;;;;;;4926969;29;20226;-81
2021/03/08 00:14:40;;;;;;;20.25;17.15;;;1.50;96.20;;;;;;4931438;29;20275;-82
2021/03/08 00:17:06;;;;;;;18.65;15.60;;;1.50;96.10;;;;;;4933231;29;20213;-82
2021/03/08 00:19:33;;;;;;;20.13;15.43;;;1.40;96.30;;;;;;4931345;29;20226;-82
2021/03/08 00:21:59;;;;;;;17.02;15.27;;;1.30;96.30;;;;;;4930896;29;20307;-82
2021/03/08 00:24:26;;;;;;;19.15;15.32;;;1.20;96.60;;;;;;4932584;29;20207;-81
2021/03/08 00:26:52;;;;;;;15.38;12.43;;;1.10;96.60;;;;;;4928285;29;20202;-82
2021/03/08 00:29:18;;;;;;;16.25;14.63;;;1.10;96.70;;;;;;4929477;29;20206;-82
2021/03/08 00:31:45;;;;;;;20.02;13.90;;;1.10;96.60;;;;;;4929581;29;20223;-82
2021/03/08 00:34:11;;;;;;;16.35;14.45;;;1.20;96.50;;;;;;4927966;29;20203;-82
2021/03/08 00:36:38;;;;;;;15.20;13.63;;;1.20;96.30;;;;;;4928258;29;20207;-83
2021/03/08 00:39:04;;;;;;;14.50;13.02;;;1.20;96.30;;;;;;4933508;29;20223;-82
2021/03/08 00:41:31;;;;;;;17.52;14.55;;;1.30;96.30;;;;;;4932225;29;20228;-81
2021/03/08 00:43:57;;;;;;;16.95;12.32;;;1.30;96.20;;;;;;4928301;29;20666;-81
2021/03/08 00:46:23;;;;;;;16.35;12.07;;;1.30;96.20;;;;;;4927781;29;20609;-81
2021/03/08 00:48:52;;;;;;;16.38;14.00;;;1.30;96.10;;;;;;4922722;29;20199;-82
2021/03/08 00:51:18;;;;;;;14.10;12.70;;;1.20;96.00;;;;;;4928401;29;20258;-82
2021/03/08 00:53:44;;;;;;;16.45;14.38;;;1.20;96.10;;;;;;4922552;29;20208;-81
2021/03/08 00:56:11;;;;;;;18.95;14.40;;;1.20;96.10;;;;;;4930284;29;20202;-82
2021/03/08 00:58:37;;;;;;;15.55;11.93;;;1.20;96.10;;;;;;4926229;29;20225;-82
2021/03/08 01:01:03;;;;;;;17.02;12.65;;;1.20;96.10;;;;;;4930893;29;20233;-82
2021/03/08 01:03:29;;;;;;;16.00;13.52;;;1.20;96.10;;;;;;4927697;29;20199;-81
2021/03/08 01:05:57;;;;;;;15.73;13.32;;;1.10;96.10;;;;;;4930459;29;20262;-82
2021/03/08 01:08:23;;;;;;;14.90;13.40;;;1.10;96.10;;;;;;4928504;29;20199;-81
2021/03/08 01:10:49;;;;;;;18.17;13.98;;;1.10;96.10;;;;;;4920608;29;20314;-81
2021/03/08 01:13:16;;;;;;;17.83;12.60;;;1.10;96.10;;;;;;4919889;29;20216;-81
2021/03/08 01:15:42;;;;;;;16.58;13.70;;;1.10;96.10;;;;;;4920085;29;20210;-81
2021/03/08 01:18:08;;;;;;;16.00;13.40;;;1.00;96.10;;;;;;4920022;29;20218;-80
2021/03/08 01:20:34;;;;;;;15.15;12.75;;;0.90;96.20;;;;;;4919780;29;20236;-81
2021/03/08 01:23:02;;;;;;;18.90;13.82;;;0.80;96.50;;;;;;4919814;29;20219;-81
2021/03/08 01:25:30;;;;;;;18.15;12.93;;;0.70;96.50;;;;;;4919832;29;20215;-81
2021/03/08 01:27:58;;;;;;;13.88;11.10;;;0.80;96.60;;;;;;4920281;29;20214;-80
2021/03/08 01:30:27;;;;;;;14.88;13.43;;;0.70;96.40;;;;;;4921039;29;20222;-81
2021/03/08 01:32:54;;;;;;;11.90;10.80;;;0.70;96.20;;;;;;4920619;29;20211;-81
2021/03/08 01:35:21;;;;;;;15.80;12.63;;;0.70;96.20;;;;;;4920437;29;20215;-81
2021/03/08 01:37:48;;;;;;;14.80;13.30;;;0.70;96.20;;;;;;4921265;29;20323;-81
2021/03/08 01:40:17;;;;;;;15.13;12.15;;;0.70;96.10;;;;;;4919572;29;20238;-81
2021/03/08 01:42:44;;;;;;;14.15;11.80;;;0.70;96.00;;;;;;4920099;29;20233;-81
2021/03/08 01:45:12;;;;;;;13.40;11.45;;;0.60;96.00;;;;;;4919948;29;20308;-81
2021/03/08 01:47:40;;;;;;;14.60;11.80;;;0.60;96.00;;;;;;4920206;29;20206;-81
2021/03/08 01:50:10;;;;;;;14.20;11.98;;;0.50;95.80;;;;;;4920084;29;20211;-81
2021/03/08 01:52:37;;;;;;;10.40;9.38;;;0.50;95.90;;;;;;4919911;29;20250;-81
2021/03/08 01:55:04;;;;;;;15.02;10.05;;;0.40;95.50;;;;;;4920248;29;20557;-81
2021/03/08 01:57:32;;;;;;;10.75;8.70;;;0.30;95.40;;;;;;4919855;29;20221;-81
2021/03/08 01:59:58;;;;;;;10.35;9.23;;;0.20;95.10;;;;;;4920069;29;20226;-81
2021/03/08 02:02:24;;;;;;;10.65;8.32;;;0.30;94.90;;;;;;4920341;29;20222;-81
2021/03/08 02:04:50;;;;;;;10.27;9.15;;;0.30;94.50;;;;;;4928898;29;20270;-79
2021/03/08 02:07:17;;;;;;;10.80;9.57;;;0.30;94.30;;;;;;4928925;29;20220;-79
2021/03/08 02:09:43;;;;;;;11.07;10.00;;;0.20;94.20;;;;;;4929907;29;20207;-80
2021/03/08 02:12:16;;;;;;;10.20;9.00;;;0.30;94.20;;;;;;4922597;29;20234;-81
2021/03/08 02:15:01;;;;;;;12.68;10.20;;;0.20;94.30;;;;;;4922123;29;20232;-81
2021/03/08 02:17:34;;;;;;;10.75;8.90;;;0.20;94.30;;;;;;4921677;29;20207;-80
2021/03/08 02:20:37;;;;;;;14.77;9.00;;;0.10;94.10;;;;;;4921546;29;20238;-81
2021/03/08 02:23:27;;;;;;;9.52;7.57;;;0.10;94.10;;;;;;4921433;29;20206;-81
2021/03/08 02:26:16;;;;;;;11.60;9.20;;;0.10;94.10;;;;;;4921980;29;20210;-80
2021/03/08 02:29:08;;;;;;;9.82;8.82;;;0.10;94.30;;;;;;4920915;29;20210;-81
2021/03/08 02:31:38;;;;;;;11.43;9.40;;;0.10;94.60;;;;;;4920541;29;20258;-81
2021/03/08 02:34:09;;;;;;;13.23;10.93;;;0.20;94.70;;;;;;4921086;29;20675;-81
2021/03/08 02:36:38;;;;;;;13.45;10.38;;;0.20;94.80;;;;;;4921674;29;20242;-81
2021/03/08 02:39:08;;;;;;;12.00;10.60;;;0.10;95.00;;;;;;4922113;29;20731;-81
2021/03/08 02:41:36;;;;;;;13.55;10.65;;;0.10;95.10;;;;;;4922132;29;20222;-81
2021/03/08 02:44:07;;;;;;;14.98;10.30;;;0.20;95.20;;;;;;4921668;29;20218;-80
2021/03/08 02:46:37;;;;;;;9.82;9.02;;;0.20;95.10;;;;;;4921852;29;20693;-81
2021/03/08 02:49:06;;;;;;;12.55;10.50;;;0.30;95.10;;;;;;4922447;29;20210;-81
2021/03/08 02:51:37;;;;;;;12.73;10.60;;;0.30;95.00;;;;;;4921866;29;20238;-80
2021/03/08 02:54:06;;;;;;;13.13;10.00;;;0.40;94.80;;;;;;4922350;29;20206;-81
2021/03/08 02:56:35;;;;;;;13.30;11.35;;;0.40;94.60;;;;;;4922631;29;20241;-81
2021/03/08 02:59:05;;;;;;;18.77;11.85;;;0.40;94.70;;;;;;4922438;29;20226;-81
2021/03/08 03:01:34;;;;;;;13.13;10.57;;;0.20;94.80;;;;;;4922650;29;20231;-80
2021/03/08 03:04:03;;;;;;;11.70;10.10;;;0.30;95.00;;;;;;4923130;29;20208;-81
2021/03/08 03:06:33;;;;;;;13.50;10.35;;;0.40;94.80;;;;;;4922850;29;20217;-81
2021/03/08 03:09:03;;;;;;;13.77;10.00;;;0.40;94.70;;;;;;4922753;29;20682;-81
2021/03/08 03:11:30;;;;;;;12.02;9.68;;;0.30;94.60;;;;;;4922553;29;20345;-81
2021/03/08 03:13:58;;;;;;;14.30;12.07;;;0.20;94.70;;;;;;4922952;29;20219;-81
2021/03/08 03:16:27;;;;;;;10.80;9.70;;;0.10;94.90;;;;;;4922773;29;20217;-80
2021/03/08 03:18:56;;;;;;;11.70;10.25;;;0.10;95.10;;;;;;4923132;29;20226;-81
2021/03/08 03:21:32;;;;;;;13.95;10.85;;;0.10;95.00;;;;;;4922533;29;20227;-80
2021/03/08 03:24:00;;;;;;;18.40;11.82;;;0.10;95.00;;;;;;4922832;29;20210;-80
2021/03/08 03:26:28;;;;;;;10.90;9.82;;;0.20;95.00;;;;;;4923033;29;20207;-81
2021/03/08 03:28:55;;;;;;;13.65;11.88;;;0.20;95.00;;;;;;4922429;29;20607;-79
2021/03/08 03:31:23;;;;;;;12.52;10.10;;;0.20;95.00;;;;;;4922022;29;20236;-80
2021/03/08 03:33:52;;;;;;;12.32;11.13;;;-0.10;95.30;;;;;;4923130;29;20215;-80
2021/03/08 03:36:18;;;;;;;15.15;12.52;;;-0.10;95.70;;;;;;4923320;29;20211;-80
2021/03/08 03:38:46;;;;;;;13.90;12.48;;;-0.20;95.80;;;;;;4923011;29;20222;-81
2021/03/08 03:41:12;;;;;;;11.68;10.57;;;-0.20;96.10;;;;;;4924305;29;20246;-81
2021/03/08 03:43:39;;;;;;;15.40;10.70;;;-0.20;96.60;;;;;;4925907;29;20213;-81
2021/03/08 03:46:06;;;;;;;13.77;11.98;;;-0.40;96.60;;;;;;4926295;29;20718;-80
2021/03/08 03:48:32;;;;;;;16.88;11.93;;;-0.40;96.90;;;;;;4926597;29;20218;-81
2021/03/08 03:50:59;;;;;;;17.00;13.20;;;-0.40;97.00;;;;;;4926650;29;20272;-81
2021/03/08 03:53:25;;;;;;;15.30;11.05;;;-0.40;97.10;;;;;;4927166;29;20213;-80
2021/03/08 03:55:53;;;;;;;14.38;12.75;;;-0.50;97.20;;;;;;4927665;29;20218;-81
2021/03/08 03:58:22;;;;;;;14.43;11.80;;;-0.40;97.40;;;;;;4926903;29;20215;-81
2021/03/08 04:00:56;;;;;;;14.73;12.15;;;-0.30;97.30;;;;;;4926948;29;20233;-79
2021/03/08 04:03:27;;;;;;;13.65;10.85;;;-0.30;97.10;;;;;;4926708;29;20242;-82
2021/03/08 04:05:57;;;;;;;17.88;13.10;;;-0.30;97.00;;;;;;4926286;29;20293;-80
2021/03/08 04:08:25;;;;;;;15.02;11.68;;;-0.50;97.40;;;;;;4926060;29;20222;-81
2021/03/08 04:10:54;;;;;;;13.77;12.30;;;-0.60;97.80;;;;;;4925492;29;20720;-81
2021/03/08 04:13:27;;;;;;;11.52;10.02;;;-0.50;97.90;;;;;;4924969;29;20210;-79
2021/03/08 04:15:54;;;;;;;14.05;12.60;;;-0.40;97.70;;;;;;4926105;29;20214;-81
2021/03/08 04:18:22;;;;;;;12.23;11.02;;;-0.30;97.60;;;;;;4925485;29;20235;-81
2021/03/08 04:20:50;;;;;;;15.80;12.27;;;-0.30;97.40;;;;;;4924815;29;20235;-81
2021/03/08 04:23:17;;;;;;;16.42;13.48;;;-0.50;97.80;;;;;;4925128;29;20666;-81
2021/03/08 04:25:47;;;;;;;16.65;12.25;;;-0.50;98.10;;;;;;4925531;29;20217;-81
2021/03/08 04:28:16;;;;;;;14.50;11.50;;;-0.50;98.10;;;;;;4925362;29;20218;-79
2021/03/08 04:30:44;;;;;;;14.93;12.82;;;-0.40;98.10;;;;;;4924962;29;20252;-81
2021/03/08 04:33:12;;;;;;;11.77;10.57;;;-0.50;98.10;;;;;;4925088;29;20211;-81
2021/03/08 04:35:39;;;;;;;13.13;10.93;;;-0.50;98.10;;;;;;4925132;29;20214;-80
2021/03/08 04:38:06;;;;;;;14.77;12.23;;;-0.60;98.20;;;;;;4925369;29;20218;-82
2021/03/08 04:40:33;;;;;;;13.57;12.27;;;-0.60;98.60;;;;;;4925455;29;20230;-81
2021/03/08 04:43:02;;;;;;;18.90;13.18;;;-0.60;98.70;;;;;;4925255;29;20215;-82
2021/03/08 04:45:30;;;;;;;16.63;12.93;;;-0.60;98.60;;;;;;4924792;29;20212;-80
2021/03/08 04:47:57;;;;;;;12.68;11.30;;;-0.60;98.60;;;;;;4924976;29;20706;-81
2021/03/08 04:50:24;;;;;;;12.75;11.52;;;-0.70;98.80;;;;;;4924653;29;20230;-82
2021/03/08 04:52:52;;;;;;;14.75;12.77;;;-0.70;98.90;;;;;;4924590;29;20211;-80
2021/03/08 04:55:20;;;;;;;14.05;12.27;;;-0.70;98.90;;;;;;4924052;29;20219;-79
2021/03/08 04:57:47;;;;;;;12.75;11.48;;;-0.70;99.00;;;;;;4921168;29;20214;-79
2021/03/08 05:00:14;;;;;;;19.90;13.85;;;-0.70;99.00;;;;;;4922237;29;20231;-79
2021/03/08 05:02:43;;;;;;;14.38;12.93;;;-0.70;98.90;;;;;;4926929;29;20213;-78
2021/03/08 05:05:11;;;;;;;16.33;11.88;;;-0.70;99.00;;;;;;4927385;29;20268;-78
2021/03/08 05:07:40;;;;;;;17.38;13.30;;;-0.70;99.10;;;;;;4925410;29;20211;-79
2021/03/08 05:10:09;;;;;;;16.95;12.90;;;-0.80;99.30;;;;;;4923546;29;20675;-79
2021/03/08 05:12:38;;;;;;;14.60;12.13;;;-0.80;99.40;;;;;;4920609;29;20210;-80
2021/03/08 05:15:07;;;;;;;13.52;12.15;;;-0.80;99.50;;;;;;4920742;29;20215;-79
2021/03/08 05:17:35;;;;;;;16.15;13.55;;;-0.80;99.80;;;;;;4921229;29;20210;-80
2021/03/08 05:20:05;;;;;;;16.23;14.63;;;-0.70;99.80;;;;;;4921079;29;20234;-79
2021/03/08 05:22:35;;;;;;;20.52;14.25;;;-0.80;99.90;;;;;;4920629;29;20705;-80
2021/03/08 05:25:03;;;;;;;15.93;13.23;;;-0.80;99.90;;;;;;4921526;29;20222;-79
2021/03/08 05:27:30;;;;;;;17.70;13.52;;;-0.90;99.90;;;;;;4920831;29;20282;-80
2021/03/08 05:29:58;;;;;;;17.70;13.90;;;-0.90;99.90;;;;;;4920555;29;20299;-80
2021/03/08 05:32:28;;;;;;;18.10;14.48;;;-0.80;99.90;;;;;;4920626;29;20285;-79
2021/03/08 05:34:55;;;;;;;20.90;14.90;;;-0.90;99.90;;;;;;4920806;29;20218;-80
2021/03/08 05:37:23;;;;;;;17.23;13.95;;;-0.90;99.90;;;;;;4920549;29;20210;-79
2021/03/08 05:39:51;;;;;;;20.67;16.13;;;-1.00;99.90;;;;;;4920563;29;20227;-79
2021/03/08 05:42:18;;;;;;;18.33;13.73;;;-1.00;99.90;;;;;;4920703;29;20238;-79
2021/03/08 05:44:56;;;;;;;16.13;14.43;;;-1.00;99.90;;;;;;4920655;29;20679;-80
2021/03/08 05:47:35;;;;;;;18.20;14.25;;;-0.90;99.90;;;;;;4920264;29;20217;-79
2021/03/08 05:50:31;;;;;;;17.52;14.40;;;-0.90;99.90;;;;;;4920609;29;20211;-80
2021/03/08 05:53:36;;;;;;;17.00;13.82;;;-1.00;99.90;;;;;;4920116;29;20230;-79
2021/03/08 05:56:23;;;;;;;17.02;15.10;;;-1.00;99.90;;;;;;4866162;29;20246;-79
2021/03/08 05:59:36;;;;;;;16.65;13.50;;;-1.00;99.90;;;;;;4914451;29;20229;-79
2021/03/08 06:02:05;;;;;;;16.48;13.00;;;-1.00;99.90;;;;;;4920268;29;20234;-79
2021/03/08 06:05:01;;;;;;;16.55;14.73;;;-1.00;99.90;;;;;;4919327;29;20293;-79
2021/03/08 06:08:03;;;;;;;21.55;17.02;;;-1.00;99.90;;;;;;4903566;29;20240;-79
2021/03/08 06:10:34;;;;;;;22.80;17.58;;;-1.10;99.90;;;;;;4920026;29;20234;-79
2021/03/08 06:13:09;;;;;;;22.10;17.45;;;-1.00;99.90;;;;;;4919923;29;20210;-79
2021/03/08 06:15:37;;;;;;;20.55;14.95;;;-1.00;99.90;;;;;;4920078;29;20218;-79
2021/03/08 06:18:07;;;;;;;22.48;15.43;;;-0.90;99.90;;;;;;4920723;29;20235;-80
2021/03/08 06:20:34;;;;;;;20.17;16.38;;;-0.80;99.90;;;;;;4920762;29;20317;-80
2021/03/08 06:23:01;;;;;;;23.70;18.52;;;-0.90;99.90;;;;;;4919892;29;20206;-79
2021/03/08 06:25:28;;;;;;;23.83;17.90;;;-0.90;99.90;;;;;;4920505;29;20278;-79
2021/03/08 06:27:54;;;;;;;22.70;18.02;;;-0.90;99.90;;;;;;4919946;29;20214;-79
2021/03/08 06:30:24;;;;;;;23.45;18.50;;;-0.80;99.90;;;;;;4919885;29;20234;-79
2021/03/08 06:32:51;;;;;;;19.30;15.85;;;-0.70;99.90;;;;;;4920335;29;20707;-80
2021/03/08 06:35:18;;;;;;;17.73;15.00;;;-0.60;99.90;;;;;;4920638;29;20214;-80
2021/03/08 06:37:46;;;;;;;17.70;14.82;;;-0.60;99.90;;;;;;4922203;29;20217;-81
2021/03/08 06:40:15;;;;;;;21.33;16.33;;;-0.50;99.90;;;;;;4926609;29;20222;-80
2021/03/08 06:42:42;;;;;;;19.48;16.95;;;-0.40;99.90;;;;;;4926247;29;20265;-80
2021/03/08 06:45:09;;;;;;;20.10;16.70;;;-0.50;99.90;;;;;;4925709;29;20221;-80
2021/03/08 06:47:37;;;;;;;23.08;16.40;;;-0.50;99.90;;;;;;4925468;29;20207;-80
2021/03/08 06:50:03;;;;;;;22.15;17.50;;;-0.40;99.90;;;;;;4924702;29;20208;-80
2021/03/08 06:52:40;;;;;;;22.38;17.05;;;-0.50;99.90;;;;;;4924366;29;20218;-80
2021/03/08 06:55:10;;;;;;;22.40;16.55;;;-0.60;99.90;;;;;;4925713;29;20215;-80
2021/03/08 06:57:38;;;;;;;17.23;15.48;;;-0.60;99.90;;;;;;4924651;29;20195;-80
2021/03/08 07:00:07;;;;;;;18.98;16.67;;;-0.50;99.90;;;;;;4923968;29;20238;-80
2021/03/08 07:02:39;;;;;;;20.50;17.70;;;-0.50;99.90;;;;;;4924916;29;20206;-80
2021/03/08 07:05:07;;;;;;;25.33;18.67;;;-0.40;99.90;;;;;;4924057;29;20217;-80
2021/03/08 07:07:52;;;;;;;22.20;16.80;;;-0.20;99.90;;;;;;4924692;29;20211;-81
2021/03/08 07:10:32;;;;;;;22.63;17.30;;;-0.10;99.90;;;;;;4938864;29;20721;-81
2021/03/08 07:12:58;;;;;;;23.85;18.40;;;0.20;99.90;;;;;;4939250;29;20203;-81
2021/03/08 07:15:24;;;;;;;23.42;19.67;;;0.30;99.90;;;;;;4945664;29;20202;-82
2021/03/08 07:17:52;;;;;;;19.08;16.95;;;0.50;99.90;;;;;;4950579;29;20274;-80
2021/03/08 07:20:18;;;;;;;22.65;16.38;;;0.70;99.90;;;;;;4948276;29;20235;-82
2021/03/08 07:22:47;;;;;;;19.15;16.67;;;0.80;99.90;;;;;;4947461;29;20238;-81
2021/03/08 07:25:22;;;;;;;18.20;16.50;;;0.90;99.90;;;;;;4949271;29;20221;-82
2021/03/08 07:27:50;;;;;;;22.13;16.92;;;1.00;99.90;;;;;;4949023;29;20214;-82
2021/03/08 07:30:19;;;;;;;18.55;16.67;;;1.10;99.90;;;;;;4949842;29;20297;-81
2021/03/08 07:32:54;;;;;;;20.08;16.05;;;1.20;99.90;;;;;;4950002;29;20221;-81
2021/03/08 07:35:43;;;;;;;20.85;15.88;;;1.20;99.90;;;;;;4949549;29;20208;-82
2021/03/08 07:38:11;;;;;;;20.92;15.18;;;1.40;99.90;;;;;;4947189;29;20226;-81
2021/03/08 07:40:40;;;;;;;17.33;15.57;;;1.50;99.60;;;;;;4952252;29;20707;-81
2021/03/08 07:43:06;;;;;;;18.30;16.60;;;1.60;99.40;;;;;;4952024;29;20216;-81
2021/03/08 07:45:41;;;;;;;18.08;16.23;;;1.70;99.10;;;;;;4952270;29;20234;-82
2021/03/08 07:48:09;;;;;;;15.00;12.48;;;1.80;98.80;;;;;;4951501;29;20302;-81
2021/03/08 07:50:36;;;;;;;15.73;13.80;;;1.90;98.70;;;;;;4952099;29;20786;-80
2021/03/08 07:53:02;;;;;;;16.95;14.02;;;2.00;98.70;;;;;;4953049;29;20213;-81
2021/03/08 07:55:38;;;;;;;16.23;14.43;;;2.10;98.10;;;;;;4953473;29;20221;-81
2021/03/08 07:58:04;;;;;;;17.15;15.40;;;2.20;97.80;;;;;;4950778;29;20247;-81
2021/03/08 08:00:32;;;;;;;17.05;14.32;;;2.20;97.60;;;;;;4950100;29;20237;-84
2021/03/08 08:03:00;;;;;;;17.15;12.98;;;2.30;97.60;;;;;;4948954;29;20211;-80
2021/03/08 08:05:28;;;;;;;19.50;14.57;;;2.30;97.40;;;;;;4952100;29;20239;-81
2021/03/08 08:07:57;;;;;;;19.25;14.35;;;2.40;97.30;;;;;;4953360;29;20241;-82
2021/03/08 08:10:24;;;;;;;15.23;13.30;;;2.50;97.30;;;;;;4952179;29;20277;-84
2021/03/08 08:12:55;;;;;;;19.30;15.30;;;2.50;97.50;;;;;;4953219;29;20215;-83
2021/03/08 08:19:07;;;;;;;21.80;16.10;;;2.50;97.20;;;;;;4920103;29;20577;-83
2021/03/08 08:25:07;;;;;;;17.48;15.73;;;2.60;98.30;;;;;;4877017;29;20219;-83
2021/03/08 08:27:34;;;;;;;19.60;15.68;;;2.60;98.00;;;;;;4944909;29;20212;-83
2021/03/08 08:30:01;;;;;;;20.63;18.55;;;2.70;98.00;;;;;;4955976;29;20259;-81
2021/03/08 08:32:48;;;;;;;18.77;15.75;;;2.80;97.40;;;;;;4955688;29;20220;-82
2021/03/08 08:35:30;;;;;;;;;;;;;;;;;;;;;
2021/03/08 08:38:17;;;;;;;23.20;17.80;;;2.80;96.80;;;;;;4958570;29;20237;-83
2021/03/08 08:41:28;;;;;;;22.23;16.50;;;2.80;96.40;;;;;;4957117;29;20290;-83
2021/03/08 08:44:35;;;;;;;17.80;15.90;;;2.80;96.70;;;;;;4949344;29;20218;-84
2021/03/08 08:47:31;;;;;;;18.27;16.35;;;2.80;96.40;;;;;;4956629;29;20235;-83
2021/03/08 08:50:02;;;;;;;18.05;15.18;;;2.80;96.60;;;;;;4958175;29;20205;-83
2021/03/08 09:02:44;;;;;;;25.95;17.65;;;2.60;97.10;;;;;;4795675;29;20678;-81
2021/03/08 09:05:40;;;;;;;19.15;16.83;;;2.60;97.00;;;;;;4951424;29;20241;-82
2021/03/08 09:08:30;;;;;;;17.15;15.45;;;2.80;97.30;;;;;;4952559;29;20228;-82
2021/03/08 09:11:00;;;;;;;20.13;14.80;;;2.80;96.80;;;;;;4948038;29;20233;-81
2021/03/08 09:13:28;;;;;;;23.15;18.20;;;2.90;97.00;;;;;;4951639;29;20276;-81
2021/03/08 09:15:56;;;;;;;18.33;16.42;;;3.00;96.90;;;;;;4951356;29;20235;-82
2021/03/08 09:18:34;;;;;;;17.95;15.57;;;3.10;96.50;;;;;;4951002;29;20236;-82
2021/03/08 09:21:22;;;;;;;23.45;17.20;;;3.10;96.20;;;;;;4948369;29;20259;-83
2021/03/08 09:23:50;;;;;;;20.30;17.20;;;3.10;95.80;;;;;;4949618;29;20198;-83
2021/03/08 09:26:17;;;;;;;18.02;16.05;;;3.30;96.10;;;;;;4952107;29;20223;-83
2021/03/08 09:28:49;;;;;;;18.23;15.77;;;3.40;96.10;;;;;;4951191;29;20229;-82
2021/03/08 09:31:23;;;;;;;18.88;15.93;;;3.50;95.70;;;;;;4952254;29;20252;-84
2021/03/08 09:33:50;;;;;;;17.60;15.75;;;3.40;94.90;;;;;;4951690;29;20878;-83
2021/03/08 09:36:19;;;;;;;19.00;15.18;;;3.40;95.70;;;;;;4950611;29;20221;-83
2021/03/08 09:38:45;;;;;;;17.75;15.90;;;3.50;95.60;;;;;;4950187;29;20209;-83
2021/03/08 09:41:12;;;;;;;17.33;15.50;;;3.60;95.30;;;;;;4949275;29;20234;-82
2021/03/08 09:43:38;;;;;;;16.92;15.32;;;3.80;95.10;;;;;;4946922;29;20215;-81
2021/03/08 09:46:06;;;;;;;17.42;15.32;;;3.90;94.90;;;;;;4946908;29;20217;-82
2021/03/08 09:48:35;;;;;;;16.33;14.82;;;3.80;94.00;;;;;;4947550;29;20210;-81
2021/03/08 09:51:11;;;;;;;18.42;16.70;;;3.90;94.30;;;;;;4947538;29;20248;-81
2021/03/08 09:53:39;;;;;;;17.92;15.60;;;4.00;94.20;;;;;;4946148;29;20217;-82
2021/03/08 09:56:07;;;;;;;17.08;15.45;;;4.20;94.30;;;;;;4946902;29;20212;-81
2021/03/08 09:58:33;;;;;;;19.02;16.83;;;4.30;93.70;;;;;;4951636;29;20216;-80
2021/03/08 10:00:59;;;;;;;16.65;14.13;;;4.40;93.80;;;;;;4953840;29;20238;-82
2021/03/08 10:03:26;;;;;;;16.10;14.48;;;4.40;93.10;;;;;;4950897;29;20210;-81
2021/03/08 10:05:54;;;;;;;15.55;14.13;;;4.60;93.30;;;;;;4947696;29;20214;-82
2021/03/08 10:08:28;;;;;;;16.50;14.35;;;4.70;93.00;;;;;;4948282;29;20210;-82
2021/03/08 10:10:55;;;;;;;19.98;14.40;;;4.90;92.90;;;;;;4947534;29;20237;-82
2021/03/08 10:13:22;;;;;;;16.05;14.13;;;5.10;92.40;;;;;;4948559;29;20206;-81
2021/03/08 10:15:50;;;;;;;16.17;14.52;;;5.10;91.30;;;;;;4945945;29;20237;-80
2021/03/08 10:18:18;;;;;;;16.60;14.98;;;5.20;91.50;;;;;;4945520;29;20216;-82
2021/03/08 10:20:50;;;;;;;14.68;12.60;;;5.40;91.60;;;;;;4946989;29;20241;-82
2021/03/08 10:23:23;;;;;;;13.02;11.88;;;5.70;90.80;;;;;;4946819;29;20253;-82
2021/03/08 10:25:50;;;;;;;14.93;13.43;;;6.00;90.00;;;;;;4947475;29;20210;-82
2021/03/08 10:28:17;;;;;;;16.50;14.50;;;6.10;89.80;;;;;;4947750;29;20252;-82
2021/03/08 10:30:43;;;;;;;15.80;14.38;;;6.10;89.60;;;;;;4948804;29;20850;-82
2021/03/08 10:33:13;;;;;;;16.58;15.18;;;6.10;88.70;;;;;;4947678;29;20213;-82
2021/03/08 10:35:42;;;;;;;12.52;11.30;;;6.40;89.00;;;;;;4945781;29;20301;-81
2021/03/08 10:38:09;;;;;;;15.48;13.20;;;6.60;87.90;;;;;;4945599;29;20237;-82
2021/03/08 10:40:37;;;;;;;12.85;11.75;;;6.60;86.60;;;;;;4945253;29;20226;-82
2021/03/08 10:43:03;;;;;;;13.23;11.98;;;6.30;85.40;;;;;;4947658;29;20640;-82
2021/03/08 10:45:30;;;;;;;11.15;10.02;;;6.30;86.50;;;;;;4946452;29;20244;-81
2021/03/08 10:48:14;;;;;;;13.23;11.90;;;6.40;86.40;;;;;;4947807;29;20206;-83
2021/03/08 10:53:26;;;;;;;13.38;12.07;;;6.80;84.20;;;;;;5275370;23;20278;-82
2021/03/08 11:09:24;;;;;;;13.50;12.30;;;8.40;79.10;;;;;;4867765;29;20667;-83
2021/03/08 11:11:51;;;;;;;13.70;12.23;;;9.10;79.80;;;;;;4924684;29;20711;-81
2021/03/08 11:14:18;;;;;;;11.10;9.90;;;9.90;73.70;;;;;;4925147;29;21148;-81
2021/03/08 11:16:49;;;;;;;11.53;10.43;;;10.60;70.20;;;;;;4925566;29;20939;-83
2021/03/08 11:19:17;;;;;;;11.97;10.40;;;11.40;65.90;;;;;;4927061;29;20504;-83
2021/03/08 11:21:43;;;;;;;10.43;9.50;;;12.10;62.90;;;;;;4925486;29;20474;-83
2021/03/08 11:24:31;;;;;;;11.17;10.07;;;12.80;60.60;;;;;;4923823;29;20451;-82
2021/03/08 11:27:13;;;;;;;11.07;10.07;;;13.40;57.70;;;;;;4916111;29;20545;-82
2021/03/08 11:29:40;;;;;;;12.13;10.93;;;14.00;53.30;;;;;;4923137;29;20447;-82
2021/03/08 11:32:08;;;;;;;10.90;9.93;;;14.20;51.90;;;;;;4923690;29;20499;-82
2021/03/08 11:34:41;;;;;;;12.17;11.03;;;14.70;51.70;;;;;;4924494;29;20506;-82
2021/03/08 11:37:12;;;;;;;11.17;10.27;;;15.20;50.50;;;;;;4925297;29;20942;-82
2021/03/08 11:39:40;;;;;;;12.57;11.47;;;15.70;47.40;;;;;;4924572;29;20534;-83
2021/03/08 11:42:07;;;;;;;12.00;10.33;;;16.10;49.00;;;;;;4923047;29;20499;-83
2021/03/08 11:44:35;;;;;;;12.40;11.30;;;16.30;45.50;;;;;;4922614;29;20484;-82
2021/03/08 11:47:01;;;;;;;12.23;11.13;;;16.70;44.80;;;;;;4922329;29;20453;-82
2021/03/08 11:49:27;;;;;;;11.33;10.37;;;17.20;44.20;;;;;;4922145;29;20460;-83
2021/03/08 11:51:54;;;;;;;12.37;11.40;;;17.60;43.80;;;;;;4922849;29;20488;-82
2021/03/08 11:54:20;;;;;;;10.83;9.93;;;18.10;41.70;;;;;;4922317;29;20470;-83
2021/03/08 11:56:46;;;;;;;11.10;10.27;;;18.50;40.80;;;;;;4923619;29;20454;-83
2021/03/08 11:59:13;;;;;;;12.17;11.13;;;18.80;39.30;;;;;;4923287;29;20472;-83
2021/03/08 12:01:40;;;;;;;11.07;9.97;;;19.00;38.30;;;;;;4923209;29;20479;-83
2021/03/08 12:04:06;;;;;;;12.10;11.07;;;19.10;37.80;;;;;;4923060;29;20469;-83
2021/03/08 12:06:33;;;;;;;11.43;10.60;;;19.30;37.60;;;;;;4923519;29;20472;-83
2021/03/08 12:08:59;;;;;;;12.03;10.93;;;19.60;37.30;;;;;;4923411;29;20459;-83
2021/03/08 12:11:27;;;;;;;13.50;12.20;;;19.60;36.00;;;;;;4922864;29;20477;-83
2021/03/08 12:13:53;;;;;;;11.53;10.57;;;19.60;36.50;;;;;;4922550;29;20454;-83
2021/03/08 12:16:20;;;;;;;13.77;10.97;;;19.60;36.50;;;;;;4922812;29;20462;-83
2021/03/08 12:18:47;;;;;;;12.70;11.40;;;19.70;36.60;;;;;;4921669;29;20454;-83
2021/03/08 12:21:14;;;;;;;11.83;10.90;;;19.60;35.00;;;;;;4921433;29;21037;-83
2021/03/08 12:23:40;;;;;;;11.23;10.43;;;19.40;34.80;;;;;;4921601;29;20456;-82
2021/03/08 12:26:07;;;;;;;12.70;11.63;;;19.40;34.50;;;;;;4921940;29;20453;-83
2021/03/08 12:28:33;;;;;;;12.90;11.70;;;18.80;34.70;;;;;;4921803;29;20466;-83
2021/03/08 12:30:59;;;;;;;14.90;13.63;;;17.40;34.80;;;;;;4922810;29;20476;-82
2021/03/08 12:33:25;;;;;;;12.53;11.40;;;17.20;36.80;;;;;;4921171;29;21254;-83
2021/03/08 12:35:53;;;;;;;13.23;12.03;;;17.30;37.60;;;;;;4922047;29;20935;-82
2021/03/08 12:38:19;;;;;;;13.30;12.20;;;17.50;37.20;;;;;;4921706;29;20460;-82
2021/03/08 12:40:46;;;;;;;13.20;12.10;;;18.00;36.70;;;;;;4921845;29;20501;-82
2021/03/08 12:43:12;;;;;;;12.57;11.57;;;18.60;36.00;;;;;;4921934;29;20832;-82
2021/03/08 12:45:38;;;;;;;12.83;11.73;;;18.10;33.90;;;;;;4921796;29;20461;-82
2021/03/08 12:48:05;;;;;;;12.93;11.83;;;18.10;35.50;;;;;;4922289;29;20457;-82
2021/03/08 12:50:32;;;;;;;13.47;12.33;;;18.50;35.20;;;;;;4921762;29;20473;-82
2021/03/08 12:52:59;;;;;;;13.10;11.87;;;18.80;33.70;;;;;;4921701;29;20466;-83
2021/03/08 12:55:25;;;;;;;13.50;12.30;;;18.60;34.20;;;;;;4921914;29;20476;-82
2021/03/08 12:57:51;;;;;;;13.90;12.80;;;18.90;34.50;;;;;;4923114;29;21032;-82
2021/03/08 13:00:18;;;;;;;12.23;11.13;;;19.40;34.30;;;;;;4922560;29;20541;-82
2021/03/08 13:02:45;;;;;;;12.67;11.67;;;19.90;33.30;;;;;;4922234;29;20469;-82
2021/03/08 13:05:12;;;;;;;12.50;11.40;;;20.10;32.40;;;;;;4921924;29;20490;-82
2021/03/08 13:07:38;;;;;;;12.90;11.80;;;20.40;32.30;;;;;;4921633;29;20472;-82
2021/03/08 13:10:07;;;;;;;11.70;10.73;;;20.10;30.30;;;;;;4921870;29;20977;-82
2021/03/08 13:12:33;;;;;;;12.73;11.63;;;19.20;29.40;;;;;;4922506;29;20990;-82
2021/03/08 13:14:59;;;;;;;11.97;11.07;;;19.10;30.40;;;;;;4921469;29;20513;-82
2021/03/08 13:17:26;;;;;;;12.40;11.50;;;19.40;30.80;;;;;;4922643;29;20906;-82
2021/03/08 13:19:52;;;;;;;12.47;11.57;;;19.80;31.70;;;;;;4922287;29;20514;-83